createdAt,value
2024-04-17T00:01:08.768Z,979.5
2024-04-17T00:03:34.827Z,979.5
2024-04-17T00:06:00.936Z,979.5
2024-04-17T00:08:27.042Z,979.5
2024-04-17T00:10:53.141Z,979.5
2024-04-17T00:13:19.225Z,979.4
2024-04-17T00:15:45.368Z,979.5
2024-04-17T00:18:10.487Z,979.4
2024-04-17T00:20:36.520Z,979.4
2024-04-17T00:23:02.607Z,979.4
2024-04-17T00:25:28.697Z,979.3
2024-04-17T00:27:54.963Z,979.4
2024-04-17T00:30:20.907Z,979.5
2024-04-17T00:32:46.994Z,979.4
2024-04-17T00:35:13.106Z,979.4
2024-04-17T00:37:39.215Z,979.5
2024-04-17T00:40:05.278Z,979.4
2024-04-17T00:42:31.367Z,979.4
2024-04-17T00:44:57.460Z,979.4
2024-04-17T00:47:23.577Z,979.4
2024-04-17T00:49:48.655Z,979.4
2024-04-17T00:52:14.759Z,979.4
2024-04-17T00:54:40.859Z,979.3
2024-04-17T00:57:07.071Z,979.3
2024-04-17T00:59:33.057Z,979.3
2024-04-17T01:01:59.149Z,979.3
2024-04-17T01:04:25.242Z,979.3
2024-04-17T01:06:51.339Z,979.3
2024-04-17T01:09:17.430Z,979.3
2024-04-17T01:11:43.527Z,979.3
2024-04-17T01:14:09.620Z,979.2
2024-04-17T01:16:35.705Z,979.2
2024-04-17T01:19:01.803Z,979.2
2024-04-17T01:21:26.934Z,979.2
2024-04-17T01:23:53.029Z,979.3
2024-04-17T01:26:19.104Z,979.3
2024-04-17T01:28:45.205Z,979.3
2024-04-17T01:31:11.300Z,979.2
2024-04-17T01:33:37.382Z,979.3
2024-04-17T01:36:03.519Z,979.3
2024-04-17T01:38:29.597Z,979.3
2024-04-17T01:40:55.698Z,979.3
2024-04-17T01:43:21.782Z,979.3
2024-04-17T01:45:47.868Z,979.4
2024-04-17T01:48:13.968Z,979.3
2024-04-17T01:50:40.070Z,979.4
2024-04-17T01:53:05.172Z,979.4
2024-04-17T01:55:31.278Z,979.4
2024-04-17T01:57:57.357Z,979.4
2024-04-17T02:00:23.461Z,979.3
2024-04-17T02:02:49.565Z,979.3
2024-04-17T02:05:15.648Z,979.4
2024-04-17T02:07:41.779Z,979.4
2024-04-17T02:10:07.829Z,979.4
2024-04-17T02:12:33.945Z,979.4
2024-04-17T02:15:00.024Z,979.4
2024-04-17T02:17:26.130Z,979.3
2024-04-17T02:19:52.218Z,979.3
2024-04-17T02:22:18.364Z,979.4
2024-04-17T02:24:43.435Z,979.3
2024-04-17T02:27:09.518Z,979.4
2024-04-17T02:29:35.619Z,979.4
2024-04-17T02:32:01.719Z,979.4
2024-04-17T02:34:27.797Z,979.4
2024-04-17T02:36:53.904Z,979.4
2024-04-17T02:39:19.997Z,979.4
2024-04-17T02:41:46.113Z,979.4
2024-04-17T02:44:12.183Z,979.5
2024-04-17T02:46:38.285Z,979.5
2024-04-17T02:49:04.411Z,979.4
2024-04-17T02:51:30.468Z,979.5
2024-04-17T02:53:56.566Z,979.5
2024-04-17T02:56:21.690Z,979.5
2024-04-17T02:58:47.776Z,979.5
2024-04-17T03:01:13.866Z,979.5
2024-04-17T03:03:39.958Z,979.5
2024-04-17T03:06:06.089Z,979.5
2024-04-17T03:08:32.162Z,979.6
2024-04-17T03:10:58.454Z,979.6
2024-04-17T03:13:24.350Z,979.6
2024-04-17T03:15:50.440Z,979.6
2024-04-17T03:18:16.532Z,979.7
2024-04-17T03:20:42.621Z,979.7
2024-04-17T03:23:08.727Z,979.7
2024-04-17T03:25:34.823Z,979.7
2024-04-17T03:27:59.921Z,979.7
2024-04-17T03:30:26.019Z,979.7
2024-04-17T03:32:52.122Z,979.7
2024-04-17T03:35:18.208Z,979.8
2024-04-17T03:37:44.297Z,979.7
2024-04-17T03:40:10.472Z,979.7
2024-04-17T03:42:36.500Z,979.8
2024-04-17T03:45:02.598Z,979.8
2024-04-17T03:47:28.787Z,979.8
2024-04-17T03:49:54.772Z,979.8
2024-04-17T03:52:20.882Z,979.8
2024-04-17T03:54:47.000Z,979.8
2024-04-17T03:57:13.066Z,979.8
2024-04-17T03:59:38.189Z,979.8
2024-04-17T04:02:04.271Z,979.9
2024-04-17T04:04:30.407Z,979.9
2024-04-17T04:06:56.450Z,979.9
2024-04-17T04:09:22.556Z,980
2024-04-17T04:11:48.643Z,979.9
2024-04-17T04:14:14.741Z,979.9
2024-04-17T04:16:40.831Z,979.9
2024-04-17T04:19:06.923Z,979.9
2024-04-17T04:21:33.032Z,979.8
2024-04-17T04:23:59.134Z,979.9
2024-04-17T04:26:25.204Z,979.9
2024-04-17T04:28:51.426Z,980
2024-04-17T04:31:16.419Z,980
2024-04-17T04:33:42.508Z,980
2024-04-17T04:36:08.601Z,980.1
2024-04-17T04:38:34.756Z,980.1
2024-04-17T04:41:00.794Z,980.1
2024-04-17T04:43:26.907Z,980.1
2024-04-17T04:45:53.091Z,980.1
2024-04-17T04:48:19.121Z,980.2
2024-04-17T04:50:45.207Z,980.1
2024-04-17T04:53:11.326Z,980.2
2024-04-17T04:55:37.453Z,980.2
2024-04-17T04:58:03.521Z,980.3
2024-04-17T05:00:29.555Z,980.3
2024-04-17T05:02:54.674Z,980.3
2024-04-17T05:05:20.777Z,980.3
2024-04-17T05:07:46.867Z,980.2
2024-04-17T05:10:12.950Z,980.3
2024-04-17T05:12:39.064Z,980.3
2024-04-17T05:15:05.155Z,980.2
2024-04-17T05:17:31.236Z,980.3
2024-04-17T05:19:57.328Z,980.3
2024-04-17T05:22:23.427Z,980.3
2024-04-17T05:24:49.521Z,980.4
2024-04-17T05:27:15.620Z,980.4
2024-04-17T05:29:41.732Z,980.4
2024-04-17T05:32:07.811Z,980.4
2024-04-17T05:34:32.926Z,980.4
2024-04-17T05:36:59.028Z,980.4
2024-04-17T05:39:25.114Z,980.5
2024-04-17T05:41:51.218Z,980.4
2024-04-17T05:44:17.298Z,980.5
2024-04-17T05:46:43.469Z,980.4
2024-04-17T05:49:08.515Z,980.5
2024-04-17T05:51:34.639Z,980.5
2024-04-17T05:54:00.707Z,980.5
2024-04-17T05:56:26.927Z,980.4
2024-04-17T05:58:52.880Z,980.4
2024-04-17T06:01:19.018Z,980.5
2024-04-17T06:03:45.114Z,980.4
2024-04-17T06:06:11.389Z,980.4
2024-04-17T06:08:37.293Z,980.4
2024-04-17T06:11:03.368Z,980.5
2024-04-17T06:13:29.461Z,980.6
2024-04-17T06:15:55.557Z,980.6
2024-04-17T06:18:21.656Z,980.6
2024-04-17T06:20:46.759Z,980.6
2024-04-17T06:23:12.855Z,980.7
2024-04-17T06:25:38.954Z,980.7
2024-04-17T06:28:05.164Z,980.7
2024-04-17T06:30:31.148Z,980.8
2024-04-17T06:32:57.234Z,980.8
2024-04-17T06:35:23.356Z,980.8
2024-04-17T06:37:49.436Z,980.8
2024-04-17T06:40:15.654Z,980.8
2024-04-17T06:42:41.707Z,980.8
2024-04-17T06:45:07.768Z,980.8
2024-04-17T06:47:33.806Z,980.8
2024-04-17T06:49:59.975Z,980.8
2024-04-17T06:52:25.046Z,980.9
2024-04-17T06:54:51.136Z,980.9
2024-04-17T06:57:17.215Z,980.9
2024-04-17T06:59:43.383Z,980.9
2024-04-17T07:02:09.511Z,980.9
2024-04-17T07:04:35.643Z,981
2024-04-17T07:07:01.636Z,981
2024-04-17T07:09:27.686Z,981
2024-04-17T07:11:53.799Z,981
2024-04-17T07:14:20.145Z,981
2024-04-17T07:16:45.988Z,981
2024-04-17T07:19:12.102Z,981
2024-04-17T07:21:38.170Z,980.9
2024-04-17T07:24:03.317Z,980.9
2024-04-17T07:26:29.401Z,980.9
2024-04-17T07:28:55.499Z,980.9
2024-04-17T07:31:21.611Z,981
2024-04-17T07:33:47.664Z,981
2024-04-17T07:36:13.955Z,981
2024-04-17T07:38:39.903Z,981.1
2024-04-17T07:41:05.986Z,981
2024-04-17T07:43:32.040Z,981
2024-04-17T07:45:58.161Z,981
2024-04-17T07:48:24.363Z,981
2024-04-17T07:50:50.324Z,981.1
2024-04-17T07:53:16.409Z,981.1
2024-04-17T07:55:41.563Z,981.1
2024-04-17T07:58:07.622Z,981
2024-04-17T08:00:33.739Z,981
2024-04-17T08:02:59.870Z,981
2024-04-17T08:05:25.971Z,981
2024-04-17T08:07:51.991Z,981
2024-04-17T08:10:18.089Z,981
2024-04-17T08:12:44.204Z,981
2024-04-17T08:15:10.298Z,981.1
2024-04-17T08:17:36.375Z,981
2024-04-17T08:20:02.492Z,981
2024-04-17T08:22:28.614Z,981.1
2024-04-17T08:24:54.702Z,981.1
2024-04-17T08:27:19.796Z,981.1
2024-04-17T08:29:46.044Z,981.1
2024-04-17T08:32:11.975Z,981.1
2024-04-17T08:34:38.063Z,981.2
2024-04-17T08:37:04.184Z,981.1
2024-04-17T08:39:30.392Z,981.2
2024-04-17T08:41:56.563Z,981.2
2024-04-17T08:44:22.579Z,981.2
2024-04-17T08:46:48.774Z,981.2
2024-04-17T08:49:14.712Z,981.2
2024-04-17T08:51:40.879Z,981.1
2024-04-17T08:54:06.820Z,981.2
2024-04-17T08:56:33.025Z,981.2
2024-04-17T08:58:58.085Z,981.2
2024-04-17T09:01:24.346Z,981.2
2024-04-17T09:03:50.218Z,981.2
2024-04-17T09:06:16.310Z,981.2
2024-04-17T09:08:42.459Z,981.2
2024-04-17T09:11:08.518Z,981.1
2024-04-17T09:13:34.615Z,981.2
2024-04-17T09:16:00.692Z,981.2
2024-04-17T09:18:26.795Z,981.2
2024-04-17T09:20:52.879Z,981.2
2024-04-17T09:23:18.976Z,981.2
2024-04-17T09:25:45.201Z,981.2
2024-04-17T09:28:11.332Z,981.1
2024-04-17T09:30:36.296Z,981.2
2024-04-17T09:33:02.375Z,981.1
2024-04-17T09:35:28.550Z,981.2
2024-04-17T09:37:54.673Z,981.2
2024-04-17T09:40:20.674Z,981.2
2024-04-17T09:42:46.784Z,981.3
2024-04-17T09:45:12.848Z,981.4
2024-04-17T09:47:38.961Z,981.4
2024-04-17T09:50:05.041Z,981.4
2024-04-17T09:52:31.120Z,981.4
2024-04-17T09:54:57.294Z,981.4
2024-04-17T09:57:23.323Z,981.4
2024-04-17T09:59:49.404Z,981.6
2024-04-17T10:02:14.540Z,981.6
2024-04-17T10:04:40.616Z,981.6
2024-04-17T10:07:06.745Z,981.6
2024-04-17T10:09:32.936Z,981.7
2024-04-17T10:11:58.915Z,981.6
2024-04-17T10:14:25.034Z,981.6
2024-04-17T10:16:51.102Z,981.6
2024-04-17T10:19:17.272Z,981.7
2024-04-17T10:21:43.329Z,981.7
2024-04-17T10:24:09.411Z,981.6
2024-04-17T10:26:35.488Z,981.7
2024-04-17T10:29:01.567Z,981.7
2024-04-17T10:31:27.774Z,981.7
2024-04-17T10:33:52.776Z,981.8
2024-04-17T10:36:19.009Z,981.7
2024-04-17T10:38:45.068Z,981.7
2024-04-17T10:41:11.119Z,981.8
2024-04-17T10:43:37.351Z,981.8
2024-04-17T10:46:03.252Z,981.9
2024-04-17T10:48:29.365Z,981.9
2024-04-17T10:50:55.465Z,981.9
2024-04-17T10:53:21.680Z,981.9
2024-04-17T10:55:47.813Z,981.9
2024-04-17T10:58:13.743Z,981.8
2024-04-17T11:00:39.879Z,981.8
2024-04-17T11:03:05.931Z,981.8
2024-04-17T11:05:31.143Z,981.7
2024-04-17T11:07:57.195Z,981.8
2024-04-17T11:10:23.247Z,981.8
2024-04-17T11:12:49.502Z,981.7
2024-04-17T11:15:15.640Z,981.7
2024-04-17T11:17:41.591Z,981.7
2024-04-17T11:20:07.605Z,981.6
2024-04-17T11:22:33.861Z,981.6
2024-04-17T11:24:59.928Z,981.6
2024-04-17T11:27:26.013Z,981.6
2024-04-17T11:29:51.971Z,981.6
2024-04-17T11:32:18.092Z,981.6
2024-04-17T11:34:44.258Z,981.5
2024-04-17T11:37:09.313Z,981.5
2024-04-17T11:39:35.380Z,981.4
2024-04-17T11:42:01.672Z,981.5
2024-04-17T11:44:27.994Z,981.5
2024-04-17T11:46:53.676Z,981.4
2024-04-17T11:49:20.065Z,981.4
2024-04-17T11:51:46.072Z,981.3
2024-04-17T11:54:12.009Z,981.3
2024-04-17T11:56:38.091Z,981.3
2024-04-17T11:59:04.278Z,981.3
2024-04-17T12:01:30.215Z,981.5
2024-04-17T12:03:56.606Z,981.4
2024-04-17T12:06:22.610Z,981.6
2024-04-17T12:08:47.770Z,981.6
2024-04-17T12:11:13.861Z,981.5
2024-04-17T12:13:39.822Z,981.5
2024-04-17T12:16:06.003Z,981.6
2024-04-17T12:18:32.167Z,981.5
2024-04-17T12:20:58.031Z,981.5
2024-04-17T12:23:24.282Z,981.5
2024-04-17T12:25:50.193Z,981.5
2024-04-17T12:28:16.297Z,981.7
2024-04-17T12:30:42.523Z,981.6
2024-04-17T12:33:08.481Z,981.5
2024-04-17T12:35:34.701Z,981.5
2024-04-17T12:38:00.816Z,981.4
2024-04-17T12:40:25.769Z,981.4
2024-04-17T12:42:52.029Z,981.4
2024-04-17T12:45:17.994Z,981.4
2024-04-17T12:47:44.205Z,981.4
2024-04-17T12:50:10.175Z,981.4
2024-04-17T12:52:36.244Z,981.3
2024-04-17T12:55:02.501Z,981.3
2024-04-17T12:57:28.519Z,981.3
2024-04-17T12:59:54.534Z,981.3
2024-04-17T13:02:20.633Z,981.4
2024-04-17T13:04:46.715Z,981.3
2024-04-17T13:07:12.942Z,981.3
2024-04-17T13:09:38.931Z,981.2
2024-04-17T13:12:04.059Z,981.2
2024-04-17T13:14:30.151Z,981.2
2024-04-17T13:16:56.265Z,981.2
2024-04-17T13:19:22.340Z,981.2
2024-04-17T13:21:48.705Z,981.2
2024-04-17T13:24:14.913Z,981.2
2024-04-17T13:26:40.847Z,981.2
2024-04-17T13:29:07.008Z,981.2
2024-04-17T13:31:32.801Z,981.1
2024-04-17T13:33:58.883Z,981.1
2024-04-17T13:36:25.060Z,981.1
2024-04-17T13:38:51.079Z,981.1
2024-04-17T13:41:17.283Z,981
2024-04-17T13:43:42.649Z,981.1
2024-04-17T13:46:08.549Z,981.1
2024-04-17T13:48:34.626Z,981.2
2024-04-17T13:51:00.978Z,981.1
2024-04-17T13:53:26.915Z,981.1
2024-04-17T13:55:52.752Z,981.1
2024-04-17T13:58:18.207Z,981
2024-04-17T14:00:44.324Z,981.1
2024-04-17T14:03:10.277Z,981
2024-04-17T14:08:02.518Z,981
2024-04-17T14:10:28.495Z,981.1
2024-04-17T14:12:54.692Z,981.1
2024-04-17T14:15:20.703Z,981.1
2024-04-17T14:17:46.626Z,981.1
2024-04-17T14:20:12.916Z,981.2
2024-04-17T14:22:39.074Z,981.1
2024-04-17T14:25:04.916Z,981.1
2024-04-17T14:27:31.208Z,981.2
2024-04-17T14:29:56.393Z,981.2
2024-04-17T14:32:22.227Z,981.1
2024-04-17T14:34:48.451Z,981.1
2024-04-17T14:37:14.692Z,981
2024-04-17T14:39:40.509Z,981.1
2024-04-17T14:42:06.892Z,981.1
2024-04-17T14:44:33.022Z,981.1
2024-04-17T14:46:58.772Z,981
2024-04-17T14:49:24.884Z,981
2024-04-17T14:51:50.951Z,981.1
2024-04-17T14:54:17.053Z,981.1
2024-04-17T14:56:43.508Z,981.1
2024-04-17T14:59:09.567Z,981
2024-04-17T15:01:34.440Z,981
2024-04-17T15:04:00.750Z,981.2
2024-04-17T15:06:26.668Z,980.9
2024-04-17T15:08:52.823Z,980.8
2024-04-17T15:11:18.750Z,980.9
2024-04-17T15:16:11.032Z,980.9
2024-04-17T15:18:37.201Z,980.9
2024-04-17T15:21:03.349Z,980.9
2024-04-17T15:23:29.566Z,981
2024-04-17T15:25:55.483Z,981
2024-04-17T15:28:21.405Z,980.9
2024-04-17T15:30:47.500Z,980.9
2024-04-17T15:33:12.608Z,980.8
2024-04-17T15:35:39.097Z,980.9
2024-04-17T15:38:04.972Z,980.9
2024-04-17T15:40:30.978Z,980.9
2024-04-17T15:42:57.236Z,980.9
2024-04-17T15:45:23.086Z,980.9
2024-04-17T15:47:49.468Z,980.8
2024-04-17T15:50:15.511Z,980.9
2024-04-17T15:52:41.345Z,980.9
2024-04-17T15:55:07.592Z,980.8
2024-04-17T15:57:33.557Z,980.8
2024-04-17T15:59:59.880Z,980.8
2024-04-17T16:02:25.894Z,980.9
2024-04-17T16:04:50.905Z,980.9
2024-04-17T16:07:16.928Z,980.9
2024-04-17T16:09:43.266Z,980.9
2024-04-17T16:12:09.131Z,980.9
2024-04-17T16:14:35.239Z,980.9
2024-04-17T16:17:01.446Z,981
2024-04-17T16:19:27.805Z,980.9
2024-04-17T16:21:53.781Z,980.9
2024-04-17T16:24:20.012Z,980.9
2024-04-17T16:26:45.994Z,980.8
2024-04-17T16:29:12.161Z,980.8
2024-04-17T16:31:38.246Z,980.8
2024-04-17T16:34:04.110Z,980.9
2024-04-17T16:36:29.094Z,980.9
2024-04-17T16:38:55.197Z,980.9
2024-04-17T16:41:21.281Z,981
2024-04-17T16:43:47.386Z,981.1
2024-04-17T16:46:13.481Z,981.2
2024-04-17T16:48:39.610Z,981.4
2024-04-17T16:51:05.680Z,981.5
2024-04-17T16:53:31.773Z,981.5
2024-04-17T16:55:57.872Z,981.8
2024-04-17T16:58:23.943Z,981.8
2024-04-17T17:00:50.043Z,981.8
2024-04-17T17:03:16.141Z,982
2024-04-17T17:05:42.246Z,982
2024-04-17T17:08:07.359Z,982.1
2024-04-17T17:10:33.447Z,982.1
2024-04-17T17:12:59.545Z,982.2
2024-04-17T17:15:25.617Z,982.2
2024-04-17T17:17:51.754Z,982.2
2024-04-17T17:20:17.829Z,982.2
2024-04-17T17:22:43.919Z,982.2
2024-04-17T17:25:10.024Z,982.2
2024-04-17T17:27:36.108Z,982.1
2024-04-17T17:30:02.203Z,982.1
2024-04-17T17:32:28.301Z,982.2
2024-04-17T17:34:54.387Z,982.2
2024-04-17T17:37:20.477Z,982.3
2024-04-17T17:39:45.595Z,982.4
2024-04-17T17:42:11.679Z,982.3
2024-04-17T17:44:37.800Z,982.3
2024-04-17T17:47:03.887Z,982.3
2024-04-17T17:49:29.967Z,982.3
2024-04-17T17:51:56.082Z,982.2
2024-04-17T17:54:22.181Z,982.3
2024-04-17T17:56:48.253Z,982.3
2024-04-17T17:59:14.348Z,982.3
2024-04-17T18:01:40.494Z,982.4
2024-04-17T18:04:06.551Z,982.4
2024-04-17T18:06:32.646Z,982.5
2024-04-17T18:08:58.739Z,982.5
2024-04-17T18:11:23.836Z,982.6
2024-04-17T18:13:49.945Z,982.5
2024-04-17T18:16:16.078Z,982.5
2024-04-17T18:18:42.137Z,982.5
2024-04-17T18:21:08.227Z,982.5
2024-04-17T18:23:34.332Z,982.5
2024-04-17T18:26:00.413Z,982.5
2024-04-17T18:28:26.518Z,982.5
2024-04-17T18:30:52.603Z,982.5
2024-04-17T18:33:18.681Z,982.5
2024-04-17T18:35:44.806Z,982.6
2024-04-17T18:38:10.893Z,982.6
2024-04-17T18:40:36.997Z,982.6
2024-04-17T18:43:02.117Z,982.6
2024-04-17T18:45:35.167Z,982.5
2024-04-17T18:47:54.300Z,982.6
2024-04-17T18:50:20.395Z,982.7
2024-04-17T18:52:46.495Z,982.6
2024-04-17T18:55:12.581Z,982.7
2024-04-17T18:57:38.691Z,982.7
2024-04-17T19:00:04.792Z,982.7
2024-04-17T19:02:30.885Z,982.7
2024-04-17T19:04:57.054Z,982.6
2024-04-17T19:07:23.063Z,982.7
2024-04-17T19:09:49.153Z,982.7
2024-04-17T19:12:15.255Z,982.7
2024-04-17T19:14:40.373Z,982.7
2024-04-17T19:17:06.445Z,982.8
2024-04-17T19:19:32.578Z,982.7
2024-04-17T19:21:58.663Z,982.8
2024-04-17T19:24:24.755Z,982.8
2024-04-17T19:26:50.832Z,982.8
2024-04-17T19:29:16.936Z,982.8
2024-04-17T19:31:43.021Z,982.8
2024-04-17T19:34:09.143Z,982.9
2024-04-17T19:36:35.207Z,982.9
2024-04-17T19:39:01.314Z,982.9
2024-04-17T19:41:27.418Z,982.9
2024-04-17T19:43:53.515Z,982.9
2024-04-17T19:46:18.648Z,982.9
2024-04-17T19:48:44.702Z,982.9
2024-04-17T19:51:10.812Z,982.9
2024-04-17T19:53:36.894Z,982.9
2024-04-17T19:56:03.007Z,982.8
2024-04-17T19:58:29.091Z,982.8
2024-04-17T20:00:55.171Z,982.8
2024-04-17T20:03:21.426Z,982.9
2024-04-17T20:05:47.404Z,982.8
2024-04-17T20:08:13.471Z,982.9
2024-04-17T20:10:39.565Z,982.8
2024-04-17T20:13:05.674Z,982.9
2024-04-17T20:15:31.853Z,982.9
2024-04-17T20:17:56.890Z,982.9
2024-04-17T20:20:22.962Z,982.9
2024-04-17T20:22:49.068Z,983
2024-04-17T20:25:15.283Z,982.9
2024-04-17T20:27:41.595Z,982.9
2024-04-17T20:30:07.565Z,982.8
2024-04-17T20:32:33.802Z,982.9
2024-04-17T20:34:59.654Z,982.9
2024-04-17T20:37:25.939Z,982.9
2024-04-17T20:39:51.741Z,982.9
2024-04-17T20:42:17.840Z,983
2024-04-17T20:44:43.944Z,982.9
2024-04-17T20:47:10.027Z,983
2024-04-17T20:49:35.132Z,983
2024-04-17T20:52:01.227Z,983
2024-04-17T20:54:27.335Z,982.9
2024-04-17T20:56:53.433Z,982.9
2024-04-17T20:59:19.536Z,982.9
2024-04-17T21:01:45.623Z,983
2024-04-17T21:04:11.716Z,982.9
2024-04-17T21:06:37.801Z,982.9
2024-04-17T21:09:03.957Z,982.9
2024-04-17T21:11:30.010Z,982.9
2024-04-17T21:13:56.094Z,982.9
2024-04-17T21:16:22.190Z,982.8
2024-04-17T21:18:48.278Z,982.8
2024-04-17T21:21:13.405Z,982.9
2024-04-17T21:23:39.490Z,982.9
2024-04-17T21:26:05.596Z,982.9
2024-04-17T21:28:31.727Z,982.9
2024-04-17T21:30:57.785Z,982.9
2024-04-17T21:33:23.873Z,982.9
2024-04-17T21:35:49.975Z,982.9
2024-04-17T21:38:16.066Z,983
2024-04-17T21:40:42.163Z,983
2024-04-17T21:43:08.252Z,983
2024-04-17T21:45:34.345Z,983
2024-04-17T21:48:00.459Z,982.9
2024-04-17T21:50:26.549Z,983
2024-04-17T21:52:51.659Z,982.9
2024-04-17T21:55:17.781Z,983
2024-04-17T21:57:43.845Z,982.9
2024-04-17T22:00:09.945Z,982.9
2024-04-17T22:02:36.039Z,983
2024-04-17T22:05:02.144Z,982.9
2024-04-17T22:07:27.245Z,982.9
2024-04-17T22:09:53.355Z,982.9
2024-04-17T22:12:19.465Z,982.9
2024-04-17T22:14:45.636Z,983
2024-04-17T22:17:11.644Z,983
2024-04-17T22:19:37.742Z,983
2024-04-17T22:22:03.843Z,983
2024-04-17T22:24:29.936Z,983
2024-04-17T22:26:56.036Z,983
2024-04-17T22:29:22.135Z,983
2024-04-17T22:31:48.219Z,983
2024-04-17T22:34:14.305Z,983
2024-04-17T22:36:40.394Z,983
2024-04-17T22:39:05.522Z,983
2024-04-17T22:41:31.606Z,983
2024-04-17T22:43:57.706Z,983
2024-04-17T22:46:23.796Z,983.1
2024-04-17T22:48:49.917Z,983.1
2024-04-17T22:51:16.012Z,983.1
2024-04-17T22:53:42.082Z,983.2
2024-04-17T22:56:08.200Z,983.1
2024-04-17T22:58:34.274Z,983.2
2024-04-17T23:01:00.393Z,983.2
2024-04-17T23:03:26.474Z,983.2
2024-04-17T23:05:52.566Z,983.2
2024-04-17T23:08:18.670Z,983.3
2024-04-17T23:10:43.787Z,983.3
2024-04-17T23:13:09.885Z,983.2
2024-04-17T23:15:35.958Z,983.2
2024-04-17T23:18:02.071Z,983.2
2024-04-17T23:20:28.162Z,983.2
2024-04-17T23:22:54.247Z,983.2
2024-04-17T23:25:20.366Z,983.2
2024-04-17T23:27:46.437Z,983.2
2024-04-17T23:30:12.540Z,983.3
2024-04-17T23:32:38.656Z,983.2
2024-04-17T23:35:04.738Z,983.2
2024-04-17T23:37:30.824Z,983.3
2024-04-17T23:39:56.938Z,983.2
2024-04-17T23:42:22.038Z,983.3
2024-04-17T23:44:48.133Z,983.3
2024-04-17T23:47:14.228Z,983.3
2024-04-17T23:49:40.328Z,983.3
2024-04-17T23:52:06.432Z,983.3
2024-04-17T23:54:32.516Z,983.3
2024-04-17T23:56:58.624Z,983.2
2024-04-17T23:59:24.728Z,983.2
